Time;durP1;ratioP1;P1;durP2;ratioP2;P2;SDS_P1;SDS_P2;PMS_P1;PMS_P2;Temp;Humidity;BMP_temperature;BMP_pressure;BME280_temperature;BME280_humidity;BME280_pressure;Samples;Min_cycle;Max_cycle;Signal;HPM_P1;HPM_P2
2022/05/06 00:00:22;;;;;;;36.80;23.85;;;;;;;;;;5042404;28;20469;-80
2022/05/06 00:02:48;;;;;;;34.00;21.50;;;;;;;;;;5025215;28;20151;-80
2022/05/06 00:05:14;;;;;;;21.60;15.55;;;;;;;;;;5028016;28;20049;-81
2022/05/06 00:07:40;;;;;;;23.05;15.98;;;;;;;;;;5051376;28;20045;-80
2022/05/06 00:10:07;;;;;;;20.38;13.55;;;;;;;;;;5053118;28;20035;-80
2022/05/06 00:12:33;;;;;;;17.77;11.93;;;;;;;;;;5047964;28;20045;-81
2022/05/06 00:14:59;;;;;;;18.63;11.35;;;;;;;;;;5025435;28;20041;-80
2022/05/06 00:17:26;;;;;;;16.80;11.40;;;;;;;;;;5027885;28;20041;-81
2022/05/06 00:19:52;;;;;;;16.27;11.43;;;;;;;;;;5027217;28;20052;-80
2022/05/06 00:22:18;;;;;;;16.02;11.05;;;;;;;;;;5043562;28;20057;-81
2022/05/06 00:24:44;;;;;;;12.82;9.95;;;;;;;;;;5045999;28;20049;-80
2022/05/06 00:27:10;;;;;;;15.38;11.23;;;;;;;;;;5041576;28;20033;-81
2022/05/06 00:29:37;;;;;;;11.68;8.68;;;;;;;;;;5038611;28;20041;-81
2022/05/06 00:32:03;;;;;;;9.40;7.15;;;;;;;;;;5006576;28;20052;-81
2022/05/06 00:34:29;;;;;;;10.35;7.22;;;;;;;;;;5039299;28;20068;-81
2022/05/06 00:36:55;;;;;;;9.85;7.13;;;;;;;;;;5039727;28;20509;-80
2022/05/06 00:39:22;;;;;;;8.82;7.30;;;;;;;;;;5039863;28;20147;-80
2022/05/06 00:41:48;;;;;;;13.32;9.55;;;;;;;;;;5039648;28;20715;-80
2022/05/06 00:44:14;;;;;;;20.27;12.18;;;;;;;;;;5037696;28;20048;-81
2022/05/06 00:46:41;;;;;;;17.10;11.75;;;;;;;;;;5039064;28;20029;-80
2022/05/06 00:49:09;;;;;;;16.35;11.65;;;;;;;;;;5020813;28;20037;-80
2022/05/06 00:51:35;;;;;;;16.30;11.02;;;;;;;;;;5022573;28;20108;-81
2022/05/06 00:54:01;;;;;;;16.27;12.20;;;;;;;;;;5040927;28;20049;-80
2022/05/06 00:56:28;;;;;;;24.02;14.95;;;;;;;;;;5000805;28;20790;-81
2022/05/06 00:58:54;;;;;;;19.70;14.00;;;;;;;;;;5040373;28;20552;-81
2022/05/06 01:01:20;;;;;;;26.08;15.65;;;;;;;;;;5037014;28;20604;-80
2022/05/06 01:03:47;;;;;;;22.23;14.85;;;;;;;;;;5040070;28;21510;-80
2022/05/06 01:06:16;;;;;;;20.65;14.52;;;;;;;;;;5040037;28;20087;-82
2022/05/06 01:08:42;;;;;;;21.92;15.27;;;;;;;;;;5022095;28;20522;-81
2022/05/06 01:11:11;;;;;;;18.63;13.55;;;;;;;;;;5038717;28;20530;-80
2022/05/06 01:13:40;;;;;;;21.55;12.77;;;;;;;;;;5038335;28;20040;-81
2022/05/06 01:16:06;;;;;;;21.13;13.93;;;;;;;;;;5038893;28;20076;-80
2022/05/06 01:18:33;;;;;;;22.08;15.57;;;;;;;;;;5039086;28;20424;-81
2022/05/06 01:21:01;;;;;;;23.15;15.20;;;;;;;;;;5018897;28;20045;-79
2022/05/06 01:23:27;;;;;;;24.13;16.38;;;;;;;;;;5035315;28;20498;-81
2022/05/06 01:25:53;;;;;;;22.45;16.10;;;;;;;;;;5001272;28;21029;-80
2022/05/06 01:28:21;;;;;;;21.85;15.70;;;;;;;;;;5037614;28;20077;-81
2022/05/06 01:30:48;;;;;;;23.33;15.48;;;;;;;;;;5039852;28;20044;-80
2022/05/06 01:33:19;;;;;;;20.90;14.55;;;;;;;;;;5018160;28;20661;-81
2022/05/06 01:35:50;;;;;;;20.33;14.30;;;;;;;;;;5038595;28;20518;-79
2022/05/06 01:38:38;;;;;;;24.10;15.13;;;;;;;;;;5037916;28;20040;-80
2022/05/06 01:41:04;;;;;;;24.20;15.30;;;;;;;;;;5035929;28;20048;-80
2022/05/06 01:43:33;;;;;;;25.50;17.45;;;;;;;;;;5019038;28;20380;-80
2022/05/06 01:46:00;;;;;;;25.05;15.68;;;;;;;;;;5040291;28;20818;-80
2022/05/06 01:48:28;;;;;;;23.55;16.75;;;;;;;;;;5039353;28;21110;-80
2022/05/06 01:50:54;;;;;;;33.53;20.35;;;;;;;;;;5033713;28;20048;-80
2022/05/06 01:53:20;;;;;;;30.70;20.20;;;;;;;;;;5038368;28;20049;-80
2022/05/06 01:55:46;;;;;;;40.17;25.60;;;;;;;;;;5037732;28;20041;-81
2022/05/06 01:58:13;;;;;;;35.80;22.77;;;;;;;;;;5036511;28;20041;-80
2022/05/06 02:00:39;;;;;;;22.70;16.05;;;;;;;;;;5041492;28;20403;-79
2022/05/06 02:03:06;;;;;;;27.35;15.65;;;;;;;;;;5039211;28;20123;-80
2022/05/06 02:05:32;;;;;;;20.73;14.68;;;;;;;;;;5034316;28;20119;-80
2022/05/06 02:07:58;;;;;;;23.08;15.77;;;;;;;;;;5035013;28;20049;-79
2022/05/06 02:10:28;;;;;;;26.55;17.42;;;;;;;;;;5045691;28;21298;-80
2022/05/06 02:12:54;;;;;;;32.50;20.58;;;;;;;;;;5050691;28;20079;-79
2022/05/06 02:15:20;;;;;;;36.00;20.60;;;;;;;;;;5047908;28;20112;-80
2022/05/06 02:17:46;;;;;;;28.73;19.77;;;;;;;;;;5047445;28;20048;-80
2022/05/06 02:20:13;;;;;;;36.38;23.58;;;;;;;;;;5045267;28;20072;-81
2022/05/06 02:22:43;;;;;;;31.45;18.67;;;;;;;;;;5023596;28;20037;-80
2022/05/06 02:25:09;;;;;;;30.60;18.85;;;;;;;;;;5037369;28;20052;-80
2022/05/06 02:27:39;;;;;;;27.35;19.70;;;;;;;;;;5040491;28;20029;-81
2022/05/06 02:35:36;;;;;;;23.95;17.25;;;;;;;;;;5049913;28;20049;-80
2022/05/06 02:38:03;;;;;;;26.55;17.05;;;;;;;;;;5038302;28;20496;-81
2022/05/06 02:40:30;;;;;;;29.08;17.38;;;;;;;;;;5044945;28;20052;-80
2022/05/06 02:42:56;;;;;;;32.22;21.92;;;;;;;;;;5049401;28;20382;-80
2022/05/06 02:45:22;;;;;;;40.53;22.30;;;;;;;;;;5043561;28;20397;-81
2022/05/06 02:47:48;;;;;;;27.73;19.50;;;;;;;;;;5044801;28;20072;-81
2022/05/06 02:50:14;;;;;;;31.55;20.25;;;;;;;;;;5050728;28;20159;-81
2022/05/06 02:52:40;;;;;;;30.08;20.10;;;;;;;;;;5033056;28;20040;-81
2022/05/06 02:55:07;;;;;;;30.38;19.90;;;;;;;;;;5034889;28;20044;-81
2022/05/06 02:57:33;;;;;;;40.42;25.38;;;;;;;;;;5039166;28;20075;-81
2022/05/06 02:59:59;;;;;;;40.97;25.52;;;;;;;;;;5040389;28;20562;-80
2022/05/06 03:02:25;;;;;;;33.25;21.55;;;;;;;;;;5031937;28;20049;-81
2022/05/06 03:04:51;;;;;;;36.20;24.27;;;;;;;;;;5002449;28;20048;-81
2022/05/06 03:07:17;;;;;;;36.70;24.42;;;;;;;;;;5031851;28;20192;-81
2022/05/06 03:09:43;;;;;;;41.47;25.10;;;;;;;;;;5038577;28;20750;-81
2022/05/06 03:12:09;;;;;;;37.28;24.35;;;;;;;;;;5034700;28;20033;-81
2022/05/06 03:14:35;;;;;;;38.70;23.15;;;;;;;;;;5031077;28;20052;-81
2022/05/06 03:17:01;;;;;;;32.50;22.40;;;;;;;;;;5041988;28;20044;-80
2022/05/06 03:19:29;;;;;;;29.60;21.27;;;;;;;;;;5044626;28;20045;-80
2022/05/06 03:21:55;;;;;;;30.40;20.52;;;;;;;;;;5042158;28;20041;-80
2022/05/06 03:24:21;;;;;;;28.63;19.85;;;;;;;;;;5042936;28;20045;-80
2022/05/06 03:26:47;;;;;;;24.80;17.42;;;;;;;;;;5026462;28;20045;-80
2022/05/06 03:29:13;;;;;;;27.05;18.48;;;;;;;;;;5043773;28;20436;-80
2022/05/06 03:31:39;;;;;;;20.75;16.23;;;;;;;;;;5007932;28;20045;-80
2022/05/06 03:34:06;;;;;;;25.88;15.25;;;;;;;;;;5026231;28;20049;-80
2022/05/06 03:36:35;;;;;;;27.05;16.20;;;;;;;;;;5026628;28;20438;-80
2022/05/06 03:39:04;;;;;;;22.60;15.80;;;;;;;;;;5044263;28;20041;-80
2022/05/06 03:41:31;;;;;;;22.52;15.82;;;;;;;;;;5043104;28;20080;-80
2022/05/06 03:43:57;;;;;;;24.38;15.68;;;;;;;;;;5043823;28;20078;-80
2022/05/06 03:46:23;;;;;;;25.50;16.65;;;;;;;;;;5042901;28;20095;-80
2022/05/06 03:48:51;;;;;;;34.97;22.10;;;;;;;;;;5024368;28;20397;-80
2022/05/06 03:51:23;;;;;;;39.67;25.58;;;;;;;;;;5044179;28;20087;-80
2022/05/06 03:53:50;;;;;;;36.92;23.25;;;;;;;;;;5043359;28;20079;-80
2022/05/06 03:56:17;;;;;;;42.88;25.98;;;;;;;;;;5016454;28;20489;-80
2022/05/06 03:58:43;;;;;;;32.00;22.35;;;;;;;;;;5006515;28;20041;-80
2022/05/06 04:01:09;;;;;;;28.52;19.35;;;;;;;;;;5012824;28;20049;-81
2022/05/06 04:03:36;;;;;;;29.95;19.65;;;;;;;;;;5027815;28;20076;-80
2022/05/06 04:06:02;;;;;;;27.40;18.95;;;;;;;;;;5008983;28;20050;-80
2022/05/06 04:08:28;;;;;;;43.63;26.23;;;;;;;;;;5027065;28;20062;-80
2022/05/06 04:10:54;;;;;;;41.33;25.45;;;;;;;;;;5025987;28;20233;-80
2022/05/06 04:13:20;;;;;;;47.75;26.55;;;;;;;;;;5022952;28;20037;-80
2022/05/06 04:15:47;;;;;;;37.40;23.33;;;;;;;;;;5047636;28;20122;-80
2022/05/06 04:18:14;;;;;;;39.85;22.92;;;;;;;;;;5045747;28;20052;-80
2022/05/06 04:23:32;;;;;;;28.85;19.38;;;;;;;;;;5014285;28;20103;-80
2022/05/06 04:26:08;;;;;;;32.67;21.05;;;;;;;;;;5026973;28;20061;-80
2022/05/06 04:28:34;;;;;;;34.47;21.25;;;;;;;;;;5009028;28;20095;-80
2022/05/06 04:31:01;;;;;;;38.38;23.48;;;;;;;;;;5026815;28;20265;-80
2022/05/06 04:33:28;;;;;;;38.75;24.27;;;;;;;;;;5032559;28;20408;-81
2022/05/06 04:35:56;;;;;;;39.42;24.15;;;;;;;;;;5045564;28;20056;-81
2022/05/06 04:38:26;;;;;;;33.78;21.15;;;;;;;;;;5026565;28;20041;-80
2022/05/06 04:40:54;;;;;;;37.17;22.83;;;;;;;;;;5026873;28;20041;-80
2022/05/06 04:43:20;;;;;;;38.38;24.02;;;;;;;;;;5038935;28;20087;-80
2022/05/06 04:45:50;;;;;;;39.40;23.77;;;;;;;;;;5028395;28;20194;-80
2022/05/06 04:48:17;;;;;;;44.40;26.63;;;;;;;;;;5046856;28;20053;-81
2022/05/06 04:50:44;;;;;;;38.53;25.10;;;;;;;;;;4996380;28;20045;-81
2022/05/06 04:53:11;;;;;;;42.95;25.80;;;;;;;;;;5039836;28;20059;-81
2022/05/06 04:55:38;;;;;;;46.72;28.60;;;;;;;;;;5029444;28;20046;-81
2022/05/06 04:58:05;;;;;;;47.88;28.55;;;;;;;;;;5008543;28;20046;-81
2022/05/06 05:00:31;;;;;;;45.13;28.35;;;;;;;;;;5042410;28;20033;-81
2022/05/06 05:03:01;;;;;;;52.20;31.20;;;;;;;;;;5034912;28;20052;-81
2022/05/06 05:05:27;;;;;;;63.50;33.30;;;;;;;;;;5026195;28;20540;-81
2022/05/06 05:07:54;;;;;;;56.53;32.90;;;;;;;;;;5046085;28;20052;-81
2022/05/06 05:10:21;;;;;;;59.38;35.90;;;;;;;;;;5030183;28;20080;-81
2022/05/06 05:12:47;;;;;;;60.28;33.35;;;;;;;;;;5027607;28;20056;-81
2022/05/06 05:15:15;;;;;;;66.88;36.58;;;;;;;;;;5028532;28;20057;-81
2022/05/06 05:17:42;;;;;;;59.95;35.70;;;;;;;;;;5032899;28;20620;-82
2022/05/06 05:20:09;;;;;;;55.38;34.17;;;;;;;;;;5043841;28;20107;-81
2022/05/06 05:22:36;;;;;;;56.40;33.85;;;;;;;;;;5046508;28;20052;-80
2022/05/06 05:25:03;;;;;;;49.15;32.17;;;;;;;;;;5027360;28;20128;-81
2022/05/06 05:27:30;;;;;;;47.83;30.50;;;;;;;;;;5027225;28;20464;-81
2022/05/06 05:29:57;;;;;;;48.22;29.73;;;;;;;;;;5029754;28;20516;-81
2022/05/06 05:32:23;;;;;;;44.72;30.27;;;;;;;;;;5029660;28;20029;-81
2022/05/06 05:34:49;;;;;;;52.97;31.35;;;;;;;;;;5027635;28;20564;-81
2022/05/06 05:37:15;;;;;;;48.03;30.45;;;;;;;;;;5025751;28;20400;-81
2022/05/06 05:39:41;;;;;;;50.90;32.40;;;;;;;;;;5017192;28;20087;-80
2022/05/06 05:42:08;;;;;;;50.55;31.20;;;;;;;;;;5042740;28;20084;-82
2022/05/06 05:50:04;;;;;;;53.47;32.20;;;;;;;;;;5043187;28;20518;-82
2022/05/06 05:52:30;;;;;;;53.97;31.65;;;;;;;;;;5042563;28;20064;-81
2022/05/06 05:54:57;;;;;;;48.72;29.92;;;;;;;;;;5044200;28;20052;-81
2022/05/06 05:57:23;;;;;;;43.05;28.20;;;;;;;;;;5005264;28;20544;-81
2022/05/06 05:59:49;;;;;;;42.35;27.58;;;;;;;;;;5042610;28;20483;-81
2022/05/06 06:02:16;;;;;;;39.67;25.75;;;;;;;;;;5044089;28;20052;-81
2022/05/06 06:04:43;;;;;;;45.88;28.70;;;;;;;;;;5044675;28;20044;-81
2022/05/06 06:07:09;;;;;;;38.20;25.13;;;;;;;;;;5044904;28;20515;-81
2022/05/06 06:09:35;;;;;;;33.00;23.25;;;;;;;;;;5041376;28;20064;-81
2022/05/06 06:12:01;;;;;;;36.53;23.38;;;;;;;;;;5044352;28;20526;-81
2022/05/06 06:14:27;;;;;;;36.72;24.17;;;;;;;;;;5010653;28;20087;-80
2022/05/06 06:16:54;;;;;;;35.17;23.42;;;;;;;;;;5043204;28;20187;-80
2022/05/06 06:19:20;;;;;;;35.70;23.67;;;;;;;;;;5044112;28;20479;-80
2022/05/06 06:21:49;;;;;;;38.65;23.92;;;;;;;;;;5042530;28;20098;-80
2022/05/06 06:24:15;;;;;;;37.63;23.55;;;;;;;;;;5042746;28;20477;-82
2022/05/06 06:26:41;;;;;;;42.17;26.33;;;;;;;;;;5043458;28;20098;-79
2022/05/06 06:29:07;;;;;;;38.38;24.45;;;;;;;;;;5026496;28;20072;-80
2022/05/06 06:31:33;;;;;;;38.97;24.65;;;;;;;;;;5034546;28;20053;-81
2022/05/06 06:34:00;;;;;;;40.25;24.92;;;;;;;;;;5006751;28;20127;-80
2022/05/06 06:36:26;;;;;;;40.50;25.70;;;;;;;;;;5010760;28;20382;-80
2022/05/06 06:38:53;;;;;;;42.97;25.95;;;;;;;;;;5043369;28;20060;-80
2022/05/06 06:41:20;;;;;;;38.80;26.13;;;;;;;;;;5043294;28;20567;-79
2022/05/06 06:43:47;;;;;;;45.30;28.77;;;;;;;;;;5044357;28;20041;-80
2022/05/06 06:46:13;;;;;;;46.03;28.75;;;;;;;;;;5044436;28;20049;-80
2022/05/06 06:48:40;;;;;;;44.78;30.15;;;;;;;;;;5044933;28;20052;-80
2022/05/06 06:51:06;;;;;;;49.63;30.88;;;;;;;;;;5038664;28;20045;-80
2022/05/06 06:53:32;;;;;;;54.30;33.13;;;;;;;;;;5046002;28;20036;-80
2022/05/06 06:55:58;;;;;;;50.78;32.63;;;;;;;;;;5063902;28;20051;-80
2022/05/06 06:58:28;;;;;;;55.60;32.65;;;;;;;;;;5042876;28;20041;-80
2022/05/06 07:00:54;;;;;;;52.35;34.38;;;;;;;;;;5035408;28;20034;-80
2022/05/06 07:03:20;;;;;;;57.95;36.28;;;;;;;;;;5023354;28;20049;-81
2022/05/06 07:14:02;;;;;;;52.65;34.72;;;;;;;;;;5031685;28;20072;-81
2022/05/06 07:16:28;;;;;;;51.72;33.70;;;;;;;;;;5043630;28;20126;-80
2022/05/06 07:18:54;;;;;;;51.28;32.67;;;;;;;;;;5037273;28;20041;-80
2022/05/06 07:21:20;;;;;;;119.80;36.47;;;;;;;;;;5022963;28;20065;-80
2022/05/06 07:23:46;;;;;;;49.15;32.13;;;;;;;;;;5023606;28;20521;-81
2022/05/06 07:26:13;;;;;;;47.40;31.38;;;;;;;;;;5023715;28;20679;-81
2022/05/06 07:28:39;;;;;;;46.88;32.67;;;;;;;;;;5038850;28;20626;-81
2022/05/06 07:31:06;;;;;;;47.38;32.25;;;;;;;;;;5035483;28;20041;-80
2022/05/06 07:33:32;;;;;;;51.20;32.63;;;;;;;;;;5043976;28;20049;-81
2022/05/06 07:35:59;;;;;;;45.63;30.90;;;;;;;;;;5043812;28;20064;-81
2022/05/06 07:38:25;;;;;;;49.20;32.72;;;;;;;;;;5031720;28;20189;-81
2022/05/06 07:40:51;;;;;;;46.92;32.05;;;;;;;;;;5029972;28;20044;-80
2022/05/06 07:43:17;;;;;;;47.50;31.52;;;;;;;;;;5014405;28;20060;-80
2022/05/06 07:45:43;;;;;;;46.92;30.70;;;;;;;;;;5041354;28;20018;-81
2022/05/06 07:48:13;;;;;;;45.75;30.00;;;;;;;;;;4993102;28;20026;-81
2022/05/06 07:50:44;;;;;;;46.20;30.20;;;;;;;;;;5029830;28;20040;-82
2022/05/06 07:53:10;;;;;;;40.55;28.95;;;;;;;;;;5000472;28;20049;-81
2022/05/06 07:55:36;;;;;;;39.33;27.95;;;;;;;;;;5027052;28;20053;-81
2022/05/06 07:58:04;;;;;;;37.13;26.77;;;;;;;;;;5046374;28;20481;-82
2022/05/06 08:00:30;;;;;;;37.08;25.83;;;;;;;;;;5031157;28;20420;-80
2022/05/06 08:05:43;;;;;;;39.50;25.20;;;;;;;;;;5033381;28;20107;-80
2022/05/06 08:08:09;;;;;;;31.25;23.77;;;;;;;;;;5030153;28;20825;-81
2022/05/06 08:10:57;;;;;;;33.85;24.25;;;;;;;;;;5045190;28;20037;-81
2022/05/06 08:13:23;;;;;;;34.83;25.35;;;;;;;;;;5047118;28;20518;-81
2022/05/06 08:15:50;;;;;;;33.45;25.73;;;;;;;;;;5043000;28;20044;-81
2022/05/06 08:18:17;;;;;;;35.10;25.10;;;;;;;;;;5023425;28;20819;-81
2022/05/06 08:20:43;;;;;;;32.97;23.95;;;;;;;;;;5046742;28;20045;-81
2022/05/06 08:23:09;;;;;;;40.08;25.98;;;;;;;;;;5044783;28;20485;-82
2022/05/06 08:25:35;;;;;;;30.88;24.45;;;;;;;;;;5045324;28;20096;-81
2022/05/06 08:28:01;;;;;;;32.63;23.20;;;;;;;;;;5044492;28;20041;-82
2022/05/06 08:30:27;;;;;;;32.10;23.15;;;;;;;;;;5040512;28;20464;-83
2022/05/06 08:32:54;;;;;;;30.38;22.17;;;;;;;;;;5043965;28;20520;-81
2022/05/06 08:35:20;;;;;;;25.27;19.45;;;;;;;;;;5044086;28;20144;-79
2022/05/06 08:37:47;;;;;;;25.05;18.50;;;;;;;;;;5044627;28;20168;-79
2022/05/06 08:40:18;;;;;;;22.60;18.13;;;;;;;;;;5042948;28;20420;-79
2022/05/06 08:42:44;;;;;;;17.60;15.82;;;;;;;;;;5046552;28;20053;-79
2022/05/06 08:50:53;;;;;;;16.70;13.35;;;;;;;;;;5021731;28;20116;-79
2022/05/06 08:53:32;;;;;;;16.83;14.15;;;;;;;;;;5042442;28;20087;-80
2022/05/06 08:55:59;;;;;;;16.35;14.48;;;;;;;;;;5044739;28;20468;-79
2022/05/06 08:58:34;;;;;;;15.25;13.65;;;;;;;;;;5025831;28;20520;-80
2022/05/06 09:01:13;;;;;;;13.75;12.23;;;;;;;;;;5024413;28;20409;-78
2022/05/06 09:03:40;;;;;;;14.25;12.68;;;;;;;;;;5025733;28;20530;-79
2022/05/06 09:06:17;;;;;;;11.18;10.07;;;;;;;;;;5036285;28;20389;-80
2022/05/06 09:08:43;;;;;;;10.02;8.98;;;;;;;;;;5031819;28;20049;-79
2022/05/06 09:11:10;;;;;;;10.55;9.45;;;;;;;;;;4991893;28;20041;-79
2022/05/06 09:13:37;;;;;;;9.85;8.75;;;;;;;;;;4991830;28;20551;-80
2022/05/06 09:19:19;;;;;;;455.20;52.50;;;;;;;;;;5040121;28;20072;-80
2022/05/06 09:22:04;;;;;;;15.02;11.60;;;;;;;;;;5024469;28;20107;-78
2022/05/06 09:24:31;;;;;;;9.77;8.77;;;;;;;;;;5030935;28;20434;-80
2022/05/06 09:27:11;;;;;;;11.00;8.05;;;;;;;;;;5014925;28;20127;-80
2022/05/06 09:29:38;;;;;;;9.77;8.73;;;;;;;;;;5014605;28;21279;-80
2022/05/06 09:32:21;;;;;;;9.57;8.55;;;;;;;;;;5027953;28;20420;-81
2022/05/06 09:35:12;;;;;;;9.43;8.43;;;;;;;;;;5045042;28;20091;-81
2022/05/06 09:37:38;;;;;;;345.45;42.90;;;;;;;;;;5031144;28;20060;-81
2022/05/06 09:40:14;;;;;;;10.98;8.30;;;;;;;;;;4995836;28;20057;-81
2022/05/06 09:42:44;;;;;;;8.68;7.78;;;;;;;;;;5026210;28;20147;-79
2022/05/06 09:45:12;;;;;;;9.02;8.13;;;;;;;;;;5027297;28;20053;-79
2022/05/06 09:47:59;;;;;;;8.85;7.95;;;;;;;;;;5007512;28;20042;-81
2022/05/06 09:50:36;;;;;;;8.75;7.75;;;;;;;;;;5006925;28;20136;-80
2022/05/06 09:53:07;;;;;;;65.05;13.35;;;;;;;;;;5030407;28;20500;-78
2022/05/06 09:55:35;;;;;;;11.13;6.15;;;;;;;;;;5018898;28;20115;-78
2022/05/06 09:58:01;;;;;;;7.35;6.63;;;;;;;;;;5007555;28;20054;-79
2022/05/06 10:00:28;;;;;;;7.20;6.50;;;;;;;;;;5019682;28;20489;-80
2022/05/06 10:02:57;;;;;;;6.28;5.65;;;17.80;99.90;;;;;;5045065;28;20092;-79
2022/05/06 10:05:24;;;;;;;7.35;6.35;;;;;;;;;;5027151;28;20359;-79
2022/05/06 10:07:51;;;;;;;6.43;5.75;;;;;;;;;;5008701;28;20342;-79
2022/05/06 10:10:24;;;;;;;9.65;6.30;;;;;;;;;;5025182;28;20536;-79
2022/05/06 10:12:53;;;;;;;7.38;6.68;;;;;;;;;;5023430;28;20052;-79
2022/05/06 10:15:20;;;;;;;7.90;6.28;;;;;;;;;;5029354;28;20052;-78
2022/05/06 10:17:49;;;;;;;5.97;5.38;;;;;;;;;;5027767;28;20037;-78
2022/05/06 10:20:38;;;;;;;12.90;5.07;;;;;;;;;;5045297;28;20029;-79
2022/05/06 10:23:07;;;;;;;6.65;4.97;;;;;;;;;;5025443;28;20049;-83
2022/05/06 10:25:42;;;;;;;4.88;4.47;;;;;;;;;;5024586;28;20564;-78
2022/05/06 10:34:07;;;;;;;5.70;4.57;;;;;;;;;;5011696;28;20511;-79
2022/05/06 10:36:43;;;;;;;4.50;4.10;;;;;;;;;;5034661;28;20045;-79
2022/05/06 10:39:18;;;;;;;6.03;4.32;;;;;;;;;;5034050;28;20059;-78
2022/05/06 10:42:00;;;;;;;4.85;4.45;;;;;;;;;;5023036;28;20053;-79
2022/05/06 10:44:47;;;;;;;4.63;4.15;;;;;;;;;;5031293;28;20041;-79
2022/05/06 10:47:24;;;;;;;6.55;4.45;;;;;;;;;;5023440;28;20108;-78
2022/05/06 10:49:52;;;;;;;5.28;4.72;;;;;;;;;;4999210;28;20051;-79
2022/05/06 10:52:19;;;;;;;5.10;3.67;;;;;;;;;;5034989;28;20063;-80
2022/05/06 10:54:49;;;;;;;4.72;4.32;;;;;;;;;;5032683;28;20496;-79
2022/05/06 10:57:16;;;;;;;8.68;4.93;;;;;;;;;;5032669;28;20044;-79
2022/05/06 10:59:51;;;;;;;13.27;5.60;;;;;;;;;;5031089;28;20128;-79
2022/05/06 11:02:18;;;;;;;4.50;4.13;;;;;;;;;;5030826;28;20049;-79
2022/05/06 11:04:50;;;;;;;6.75;4.25;;;;;;;;;;5032009;28;20041;-82
2022/05/06 11:07:19;;;;;;;6.18;4.47;;;;;;;;;;5030852;28;20040;-79
2022/05/06 11:09:46;;;;;;;4.57;4.05;;;;;;;;;;5035242;28;20076;-78
2022/05/06 11:12:12;;;;;;;4.85;3.90;;;;;;;;;;5034409;28;20077;-79
2022/05/06 11:14:38;;;;;;;4.30;3.90;;;;;;;;;;5033779;28;20067;-81
2022/05/06 11:17:15;;;;;;;5.35;4.30;;;;;;;;;;5036645;28;20771;-79
2022/05/06 11:19:41;;;;;;;7.30;4.93;;;;;;;;;;5036563;28;20404;-81
2022/05/06 11:22:07;;;;;;;5.72;3.90;;;;;;;;;;5034705;28;20045;-81
2022/05/06 11:24:34;;;;;;;11.15;5.10;;;;;;;;;;5019535;28;20497;-79
2022/05/06 11:27:16;;;;;;;8.57;5.07;;;;;;;;;;5038207;28;20084;-79
2022/05/06 11:29:55;;;;;;;5.07;4.38;;;;;;;;;;5032853;28;20979;-78
2022/05/06 11:32:21;;;;;;;7.18;4.35;;;;;;;;;;5016073;28;20053;-79
2022/05/06 11:34:53;;;;;;;4.90;4.28;;;;;;;;;;5036326;28;20459;-79
2022/05/06 11:37:23;;;;;;;4.95;4.32;;;;;;;;;;5038404;28;20139;-80
2022/05/06 11:39:49;;;;;;;7.60;4.88;;;;;;;;;;5037290;28;20145;-78
2022/05/06 11:42:19;;;;;;;5.68;4.22;;;;;;;;;;5033920;28;20052;-81
2022/05/06 11:47:29;;;;;;;4.85;3.60;;;;;;;;;;5037583;28;20060;-79
2022/05/06 11:49:55;;;;;;;5.90;3.85;;;;;;;;;;5036604;28;20045;-79
2022/05/06 11:52:22;;;;;;;8.82;4.25;;;;;;;;;;5017266;28;20053;-80
2022/05/06 11:54:48;;;;;;;4.15;3.83;;;;;;;;;;5036111;28;20063;-79
2022/05/06 11:57:14;;;;;;;7.28;4.55;;;;;;;;;;5037343;28;20486;-79
2022/05/06 11:59:40;;;;;;;9.88;4.63;;;;;;;;;;5000321;28;20041;-79
2022/05/06 12:02:07;;;;;;;8.38;5.07;;;;;;;;;;5019018;28;20044;-80
2022/05/06 12:04:33;;;;;;;8.45;7.60;;;;;;;;;;5019646;28;20400;-79
2022/05/06 12:06:59;;;;;;;8.63;6.82;;;;;;;;;;5037139;28;20044;-81
2022/05/06 12:09:26;;;;;;;10.65;6.25;;;;;;;;;;5003733;28;20386;-79
2022/05/06 12:12:03;;;;;;;6.60;5.82;;;;;;;;;;5020073;28;20068;-78
2022/05/06 12:14:29;;;;;;;9.70;6.65;;;;;;;;;;5001112;28;20060;-79
2022/05/06 12:17:02;;;;;;;8.02;6.90;;;;;;;;;;5018015;28;20075;-81
2022/05/06 12:19:38;;;;;;;7.50;6.80;;;;;;;;;;5019340;28;20098;-78
2022/05/06 12:22:11;;;;;;;10.05;7.47;;;;;;;;;;5036367;28;20041;-79
2022/05/06 12:24:40;;;;;;;10.13;7.45;;;;;;;;;;5036842;28;20128;-78
2022/05/06 12:27:08;;;;;;;8.07;7.30;;;;;;;;;;5039113;28;20059;-79
2022/05/06 12:29:41;;;;;;;8.85;8.05;;;;;;;;;;4993200;28;20041;-80
2022/05/06 12:32:08;;;;;;;11.43;7.00;;;;;;;;;;5009830;28;20195;-80
2022/05/06 12:34:34;;;;;;;7.20;6.60;;;;;;;;;;4998199;28;20183;-79
2022/05/06 12:37:10;;;;;;;12.63;8.10;;;;;;;;;;5016215;28;20562;-80
2022/05/06 12:39:41;;;;;;;9.88;7.28;;;;;;;;;;5035508;28;20159;-79
2022/05/06 12:42:18;;;;;;;8.77;8.07;;;;;;;;;;5006866;28;20041;-80
2022/05/06 12:44:44;;;;;;;9.88;8.95;;;;;;;;;;5041658;28;20041;-79
2022/05/06 12:50:06;;;;;;;11.75;8.63;;;;;;;;;;5044982;28;20543;-78
2022/05/06 12:52:35;;;;;;;9.45;8.55;;;;;;;;;;5050370;28;20052;-79
2022/05/06 12:55:01;;;;;;;10.25;9.35;;;;;;;;;;5051991;28;20101;-78
2022/05/06 12:57:28;;;;;;;9.80;9.00;;;;;;;;;;5033586;28;20594;-78
2022/05/06 12:59:54;;;;;;;10.13;8.88;;;;;;;;;;5045897;28;20120;-79
2022/05/06 13:02:20;;;;;;;10.05;9.02;;;;;;;;;;5021004;28;20073;-79
2022/05/06 13:04:47;;;;;;;9.93;8.93;;;;;;;;;;5022816;28;20401;-80
2022/05/06 13:07:13;;;;;;;9.05;7.85;;;;;;;;;;5041669;28;20041;-80
2022/05/06 13:09:42;;;;;;;8.18;7.38;;;;;;;;;;5038735;28;20045;-80
2022/05/06 13:12:09;;;;;;;8.25;7.55;;;;;;;;;;5021217;28;20052;-82
2022/05/06 13:14:41;;;;;;;8.95;7.15;;;;;;;;;;5039561;28;20493;-78
2022/05/06 13:17:07;;;;;;;8.13;7.32;;;;;;;;;;5039807;28;20045;-80
2022/05/06 13:19:33;;;;;;;6.80;6.00;;;;;;;;;;5040042;28;20040;-80
2022/05/06 13:21:59;;;;;;;6.35;5.68;;;;;;;;;;5038862;28;20134;-80
2022/05/06 13:24:25;;;;;;;6.10;5.50;;;;;;;;;;5038937;28;20041;-80
2022/05/06 13:26:52;;;;;;;4.70;4.30;;;;;;;;;;5041898;28;20520;-80
2022/05/06 13:29:18;;;;;;;5.65;4.63;;;;;;;;;;5039511;28;20037;-81
2022/05/06 13:31:44;;;;;;;4.78;4.10;;;;;;;;;;5036832;28;20568;-81
2022/05/06 13:34:10;;;;;;;7.40;3.83;;;;;;;;;;5039947;28;20139;-82
2022/05/06 13:36:38;;;;;;;3.72;3.42;;;;;;;;;;5040135;28;20059;-79
2022/05/06 13:39:04;;;;;;;3.25;2.95;;;;;;;;;;5039724;28;20091;-79
2022/05/06 13:41:30;;;;;;;5.80;2.80;;;;;;;;;;5040345;28;20055;-81
2022/05/06 13:43:56;;;;;;;3.85;2.65;;;;;;;;;;5038473;28;20155;-80
2022/05/06 13:46:22;;;;;;;5.82;2.50;;;;;;;;;;5038628;28;20059;-80
2022/05/06 13:48:48;;;;;;;2.95;2.53;;;;;;;;;;5039922;28;20033;-79
2022/05/06 13:51:15;;;;;;;3.15;2.60;;;;;;;;;;5038815;28;20086;-80
2022/05/06 13:53:41;;;;;;;3.35;3.00;;;;;;;;;;5036315;28;20053;-79
2022/05/06 13:59:04;;;;;;;5.88;2.83;;;;;;;;;;5037674;28;20139;-81
2022/05/06 14:01:31;;;;;;;3.10;2.80;;;;;;;;;;5037180;28;20401;-80
2022/05/06 14:03:57;;;;;;;3.00;2.55;;;;;;;;;;5038331;28;20076;-79
2022/05/06 14:06:23;;;;;;;3.03;2.45;;;;;;;;;;5032135;28;20075;-80
2022/05/06 14:08:49;;;;;;;6.68;2.80;;;;;;;;;;5036901;28;20045;-79
2022/05/06 14:11:18;;;;;;;6.00;2.78;;;;;;;;;;5038165;28;20035;-80
2022/05/06 14:13:45;;;;;;;3.38;2.90;;;;;;;;;;5037515;28;20044;-81
2022/05/06 14:16:11;;;;;;;3.80;2.80;;;;;;;;;;5037555;28;20040;-81
2022/05/06 14:18:37;;;;;;;3.45;2.95;;;;;;;;;;5038424;28;20083;-80
2022/05/06 14:21:07;;;;;;;3.88;2.58;;;;;;;;;;5039657;28;20049;-80
2022/05/06 14:23:33;;;;;;;2.97;2.30;;;;;;;;;;5011441;28;20038;-81
2022/05/06 14:25:59;;;;;;;2.83;2.33;;;;;;;;;;5039137;28;20048;-81
2022/05/06 14:28:25;;;;;;;3.72;2.42;;;;;;;;;;5037671;28;20143;-81
2022/05/06 14:30:52;;;;;;;4.10;2.63;;;;;;;;;;5037913;28;21113;-80
2022/05/06 14:33:18;;;;;;;3.55;2.60;;;;;;;;;;5038914;28;20060;-81
2022/05/06 14:35:44;;;;;;;6.22;2.70;;;;;;;;;;5038165;28;20139;-82
2022/05/06 14:38:11;;;;;;;3.25;2.60;;;;;;;;;;5038075;28;20053;-81
2022/05/06 14:40:37;;;;;;;2.95;2.60;;;;;;;;;;5037298;28;20084;-82
2022/05/06 14:43:04;;;;;;;4.68;2.40;;;;;;;;;;5034991;28;20466;-81
2022/05/06 14:45:30;;;;;;;6.03;3.00;;;;;;;;;;5035013;28;20412;-84
2022/05/06 14:47:56;;;;;;;4.47;2.70;;;;;;;;;;5030417;28;20049;-80
2022/05/06 14:50:23;;;;;;;2.97;2.67;;;;;;;;;;5036398;28;20055;-80
2022/05/06 14:52:49;;;;;;;5.30;2.75;;;;;;;;;;5039443;28;20098;-80
2022/05/06 14:55:15;;;;;;;6.00;3.20;;;;;;;;;;5040087;28;20230;-85
2022/05/06 14:57:42;;;;;;;3.50;3.00;;;;;;;;;;5036261;28;20044;-81
2022/05/06 15:00:10;;;;;;;3.97;2.90;;;;;;;;;;5037431;28;20055;-81
2022/05/06 15:02:36;;;;;;;5.15;3.20;;;;;;;;;;5032875;28;20151;-81
2022/05/06 15:05:06;;;;;;;3.75;3.42;;;;;;;;;;5040273;28;20120;-80
2022/05/06 15:07:35;;;;;;;7.45;3.38;;;;;;;;;;5020467;28;20037;-80
2022/05/06 15:10:02;;;;;;;5.22;3.25;;;;;;;;;;5001060;28;20037;-85
2022/05/06 15:12:28;;;;;;;6.38;4.03;;;;;;;;;;5036159;28;20052;-85
2022/05/06 15:14:54;;;;;;;3.72;3.33;;;;;;;;;;5034826;28;20068;-81
2022/05/06 15:17:21;;;;;;;4.63;3.47;;;;;;;;;;5037944;28;20049;-84